Time;durP1;ratioP1;P1;durP2;ratioP2;P2;SDS_P1;SDS_P2;PMS_P1;PMS_P2;Temp;Humidity;BMP_temperature;BMP_pressure;BME280_temperature;BME280_humidity;BME280_pressure;Samples;Min_cycle;Max_cycle;Signal;HPM_P1;HPM_P2
2024/04/06 00:01:32;;;;;;;3.90;2.40;;;;;;;12.50;82.70;100512.67;104887;1254;139584;-71
2024/04/06 00:03:59;;;;;;;4.40;3.00;;;;;;;12.43;82.31;100521.21;104683;1258;66779;-70
2024/04/06 00:06:25;;;;;;;6.40;2.90;;;;;;;12.34;82.16;100525.65;104586;1254;138649;-70
2024/04/06 00:08:53;;;;;;;4.20;3.10;;;;;;;12.24;82.05;100533.08;104857;1258;62248;-62
2024/04/06 00:11:20;;;;;;;5.20;2.70;;;;;;;12.17;82.18;100538.60;105098;1254;61983;-70
2024/04/06 00:13:47;;;;;;;5.10;2.70;;;;;;;12.14;82.30;100541.02;105126;1257;138641;-71
2024/04/06 00:16:14;;;;;;;4.50;2.50;;;;;;;12.10;82.32;100541.30;105006;1259;65182;-70
2024/04/06 00:18:40;;;;;;;4.20;2.20;;;;;;;12.09;82.47;100547.63;104798;1254;139355;-71
2024/04/06 00:21:07;;;;;;;6.40;3.20;;;;;;;12.11;82.49;100546.79;108665;1254;60224;-71
2024/04/06 00:23:34;;;;;;;6.80;3.30;;;;;;;12.11;82.23;100544.85;108613;1254;140006;-67
2024/04/06 00:26:00;;;;;;;8.60;2.50;;;;;;;12.08;81.98;100551.65;108720;1253;73752;-69
2024/04/06 00:28:27;;;;;;;5.80;2.10;;;;;;;12.02;82.03;100557.90;108857;1254;67244;-69
2024/04/06 00:30:54;;;;;;;4.70;2.50;;;;;;;12.00;81.92;100562.79;109093;1253;138524;-69
2024/04/06 00:33:21;;;;;;;5.30;2.40;;;;;;;12.01;82.04;100569.14;109131;1253;61024;-69
2024/04/06 00:35:48;;;;;;;5.10;1.80;;;;;;;12.04;82.04;100572.18;108927;1256;139954;-68
2024/04/06 00:38:14;;;;;;;6.70;2.80;;;;;;;12.05;81.87;100570.42;108646;1259;76452;-69
2024/04/06 00:40:41;;;;;;;6.10;3.00;;;;;;;12.01;81.69;100564.20;108898;1254;65809;-62
2024/04/06 00:43:08;;;;;;;5.30;2.40;;;;;;;11.94;81.45;100557.42;108695;1254;141682;-61
2024/04/06 00:45:35;;;;;;;6.00;3.60;;;;;;;11.87;81.30;100560.45;108869;1253;59955;-62
2024/04/06 00:48:02;;;;;;;7.40;2.90;;;;;;;11.79;81.37;100561.55;109162;1254;138697;-61
2024/04/06 00:50:29;;;;;;;12.40;6.80;;;;;;;11.73;81.24;100561.08;109000;1253;73379;-61
2024/04/06 00:52:55;;;;;;;6.60;2.60;;;;;;;11.66;81.15;100568.69;105738;1259;65045;-61
2024/04/06 00:55:22;;;;;;;5.90;2.20;;;;;;;11.59;81.20;100565.41;104937;1254;138762;-61
2024/04/06 00:57:49;;;;;;;5.80;2.20;;;;;;;11.54;81.23;100569.88;105222;1254;63800;-62
2024/04/06 01:00:15;;;;;;;7.40;2.40;;;;;;;11.48;81.17;100569.77;104815;1254;138822;-62
2024/04/06 01:02:42;;;;;;;6.70;2.20;;;;;;;11.41;81.28;100571.76;104868;1254;74247;-61
2024/04/06 01:05:09;;;;;;;7.50;2.60;;;;;;;11.36;81.26;100578.86;104775;1257;67036;-62
2024/04/06 01:07:39;;;;;;;8.90;3.20;;;;;;;11.30;81.31;100584.36;104768;1259;138559;-61
2024/04/06 01:10:06;;;;;;;3.80;2.20;;;;;;;11.26;81.65;100585.68;104880;1254;62032;-62
2024/04/06 01:12:34;;;;;;;10.10;3.30;;;;;;;11.24;81.67;100590.75;104682;1257;138934;-67
2024/04/06 01:15:01;;;;;;;7.30;2.90;;;;;;;11.22;81.66;100600.03;105158;1254;76406;-69
2024/04/06 01:17:27;;;;;;;6.20;2.20;;;;;;;11.22;81.93;100600.02;105112;1257;67342;-70
2024/04/06 01:19:54;;;;;;;6.10;2.60;;;;;;;11.23;81.89;100603.03;108835;1253;139140;-70
2024/04/06 01:22:20;;;;;;;8.40;2.80;;;;;;;11.23;82.05;100603.73;108720;1254;60898;-70
2024/04/06 01:24:47;;;;;;;6.40;2.00;;;;;;;11.32;82.32;100603.56;106269;1254;138997;-69
2024/04/06 01:27:13;;;;;;;8.40;2.70;;;;;;;11.44;82.36;100600.80;104770;1259;75220;-69
2024/04/06 01:29:40;;;;;;;7.20;2.00;;;;;;;11.55;82.37;100600.31;104851;1256;139239;-68
2024/04/06 01:32:06;;;;;;;7.10;2.00;;;;;;;11.67;82.29;100605.44;104988;1259;72949;-69
2024/04/06 01:34:33;;;;;;;5.40;3.10;;;;;;;11.77;82.27;100601.23;105026;1259;62064;-69
2024/04/06 01:37:00;;;;;;;8.20;2.60;;;;;;;11.86;82.20;100598.57;104725;1259;138532;-69
2024/04/06 01:39:27;;;;;;;7.70;1.90;;;;;;;11.93;82.02;100598.72;104775;1254;74774;-69
2024/04/06 01:41:56;;;;;;;8.60;2.20;;;;;;;11.98;81.80;100604.42;104708;1258;138695;-62
2024/04/06 01:44:22;;;;;;;10.60;2.50;;;;;;;11.99;81.63;100604.45;104877;1256;71810;-63
2024/04/06 01:46:49;;;;;;;8.30;3.40;;;;;;;12.00;81.42;100604.29;105037;1254;62044;-62
2024/04/06 01:49:15;;;;;;;4.90;1.90;;;;;;;12.01;81.40;100606.25;104908;1254;139223;-62
2024/04/06 01:51:42;;;;;;;6.00;2.20;;;;;;;12.05;81.56;100611.23;104968;1254;62182;-62
2024/04/06 01:54:08;;;;;;;7.40;2.70;;;;;;;12.11;81.51;100615.73;104739;1259;139175;-61
2024/04/06 01:56:35;;;;;;;8.70;3.30;;;;;;;12.16;81.56;100613.35;104948;1258;74011;-62
2024/04/06 01:59:01;;;;;;;9.10;2.60;;;;;;;12.20;81.48;100616.23;105034;1254;62054;-61
2024/04/06 02:01:28;;;;;;;9.50;2.60;;;;;;;12.25;81.45;100615.23;105031;1254;139092;-62
2024/04/06 02:03:55;;;;;;;8.00;2.20;;;;;;;12.29;81.26;100612.66;104886;1256;76617;-69
2024/04/06 02:06:22;;;;;;;8.00;2.70;;;;;;;12.29;81.11;100615.67;104577;1259;139613;-63
2024/04/06 02:08:48;;;;;;;9.80;2.40;;;;;;;12.25;80.82;100614.72;104811;1254;71519;-62
2024/04/06 02:11:15;;;;;;;8.10;2.60;;;;;;;12.15;80.53;100615.80;104878;1254;62050;-69
2024/04/06 02:13:41;;;;;;;11.70;2.70;;;;;;;12.03;80.44;100621.23;105014;1258;138494;-67
2024/04/06 02:16:08;;;;;;;11.00;2.20;;;;;;;11.94;80.58;100625.81;105221;1254;74806;-68
2024/04/06 02:18:34;;;;;;;9.00;2.70;;;;;;;11.88;80.71;100631.48;104818;1262;138816;-68
2024/04/06 02:21:01;;;;;;;11.90;2.60;;;;;;;11.83;80.64;100629.11;104997;1254;73668;-68
2024/04/06 02:23:28;;;;;;;9.50;2.10;;;;;;;11.77;80.69;100628.11;104806;1254;62086;-62
2024/04/06 02:25:55;;;;;;;8.50;2.20;;;;;;;11.72;80.78;100630.13;104830;1257;139110;-68
2024/04/06 02:28:21;;;;;;;10.80;2.40;;;;;;;11.69;80.96;100627.98;104280;1254;75370;-62
2024/04/06 02:30:48;;;;;;;11.20;2.50;;;;;;;11.69;81.05;100632.38;104351;1257;140446;-61
2024/04/06 02:33:14;;;;;;;11.10;2.70;;;;;;;11.72;81.19;100635.40;105088;1254;73149;-61
2024/04/06 02:35:41;;;;;;;7.90;2.10;;;;;;;11.78;81.36;100639.55;105059;1254;139954;-68
2024/04/06 02:38:08;;;;;;;10.20;2.20;;;;;;;11.83;81.31;100641.23;105145;1259;61981;-68
2024/04/06 02:40:34;;;;;;;6.10;2.10;;;;;;;11.86;81.15;100646.58;105053;1253;74882;-68
2024/04/06 02:43:01;;;;;;;10.20;2.60;;;;;;;11.91;81.19;100651.96;104794;1257;138621;-69
2024/04/06 02:45:28;;;;;;;13.70;3.00;;;;;;;11.96;81.30;100655.58;105000;1255;73273;-69
2024/04/06 02:47:54;;;;;;;12.30;2.70;;;;;;;12.00;81.24;100657.05;104798;1259;140851;-63
2024/04/06 02:50:22;;;;;;;8.00;2.40;;;;;;;12.03;81.13;100656.23;104671;1253;62073;-69
2024/04/06 02:52:49;;;;;;;14.30;3.00;;;;;;;12.02;80.95;100656.05;104835;1259;74777;-70
2024/04/06 02:55:15;;;;;;;8.50;2.60;;;;;;;11.96;80.75;100655.93;104714;1259;138756;-70
2024/04/06 02:57:43;;;;;;;12.80;3.10;;;;;;;11.91;80.63;100656.69;104784;1262;73997;-69
2024/04/06 03:00:12;;;;;;;14.40;3.00;;;;;;;11.83;80.66;100656.19;105128;1259;139560;-68
2024/04/06 03:02:39;;;;;;;12.10;2.50;;;;;;;11.76;80.62;100657.98;108005;1254;59967;-70
2024/04/06 03:05:08;;;;;;;10.60;2.80;;;;;;;11.70;80.68;100664.02;105148;1254;75163;-68
2024/04/06 03:07:35;;;;;;;10.80;2.60;;;;;;;11.65;80.88;100662.37;108576;1254;139276;-68
2024/04/06 03:10:01;;;;;;;9.40;2.50;;;;;;;11.61;80.85;100666.51;108794;1254;73749;-68
2024/04/06 03:12:28;;;;;;;6.80;1.90;;;;;;;11.57;80.96;100667.83;108651;1253;138456;-69
2024/04/06 03:14:54;;;;;;;7.20;2.30;;;;;;;11.57;81.07;100672.04;105349;1254;62133;-69
2024/04/06 03:17:21;;;;;;;10.30;2.50;;;;;;;11.56;81.13;100670.63;105082;1258;76798;-62
2024/04/06 03:19:48;;;;;;;7.80;2.20;;;;;;;11.57;81.25;100670.98;104871;1260;139109;-62
2024/04/06 03:22:15;;;;;;;7.30;2.60;;;;;;;11.56;81.21;100669.73;105184;1256;71918;-61
2024/04/06 03:24:42;;;;;;;11.70;2.80;;;;;;;11.56;81.22;100673.95;104848;1257;138675;-61
2024/04/06 03:27:09;;;;;;;9.50;2.40;;;;;;;11.58;81.32;100674.86;105080;1259;62051;-62
2024/04/06 03:29:35;;;;;;;10.60;2.70;;;;;;;11.64;81.37;100668.83;109041;1254;139437;-63
2024/04/06 03:32:02;;;;;;;11.10;2.50;;;;;;;11.69;81.46;100670.52;108994;1259;65080;-63
2024/04/06 03:34:29;;;;;;;10.10;3.70;;;;;;;11.75;81.37;100671.67;108630;1253;73733;-63
2024/04/06 03:36:59;;;;;;;12.20;2.40;;;;;;;11.78;81.17;100671.75;107782;1254;138996;-67
2024/04/06 03:39:25;;;;;;;11.30;2.90;;;;;;;11.77;80.91;100676.64;104680;1260;62026;-68
2024/04/06 03:41:52;;;;;;;8.60;2.70;;;;;;;11.71;80.75;100676.71;104738;1254;139105;-62
2024/04/06 03:44:18;;;;;;;11.60;2.50;;;;;;;11.66;80.72;100680.13;105231;1259;66548;-62
2024/04/06 03:46:45;;;;;;;12.70;3.20;;;;;;;11.65;80.94;100686.95;105113;1254;62128;-63
2024/04/06 03:49:11;;;;;;;11.70;2.80;;;;;;;11.70;81.17;100688.46;104994;1257;139118;-63
2024/04/06 03:51:38;;;;;;;12.10;2.80;;;;;;;11.76;81.14;100694.02;105123;1258;62068;-62
2024/04/06 03:54:04;;;;;;;10.80;2.80;;;;;;;11.80;81.14;100694.11;105022;1256;139113;-63
2024/04/06 03:56:31;;;;;;;14.50;2.80;;;;;;;11.87;81.27;100689.52;105044;1259;66546;-63
2024/04/06 03:58:58;;;;;;;11.00;2.60;;;;;;;11.93;81.09;100693.15;104800;1254;73383;-63
2024/04/06 04:01:25;;;;;;;9.10;2.90;;;;;;;11.92;80.87;100690.66;104481;1260;138689;-63
2024/04/06 04:03:51;;;;;;;10.40;2.40;;;;;;;11.91;80.89;100686.42;104644;1260;62315;-62
2024/04/06 04:06:18;;;;;;;10.30;2.80;;;;;;;11.90;80.77;100687.96;104695;1260;138960;-62
2024/04/06 04:08:44;;;;;;;13.80;2.80;;;;;;;11.88;80.68;100687.56;104922;1254;61173;-63
2024/04/06 04:11:11;;;;;;;15.00;2.80;;;;;;;11.82;80.61;100684.31;105069;1259;73647;-63
2024/04/06 04:13:37;;;;;;;11.60;3.30;;;;;;;11.76;80.45;100688.06;104815;1257;140133;-62
2024/04/06 04:16:04;;;;;;;8.40;2.60;;;;;;;11.73;80.57;100689.91;104979;1256;62150;-63
2024/04/06 04:18:31;;;;;;;12.60;2.80;;;;;;;11.72;80.66;100701.33;105139;1254;138556;-63
2024/04/06 04:20:57;;;;;;;14.50;3.30;;;;;;;11.74;80.76;100702.08;105361;1257;66073;-69
2024/04/06 04:23:24;;;;;;;10.60;2.80;;;;;;;11.78;80.96;100712.52;105118;1257;71919;-69
2024/04/06 04:25:51;;;;;;;14.30;2.90;;;;;;;11.81;80.85;100710.30;105055;1258;138988;-69
2024/04/06 04:28:17;;;;;;;12.50;2.80;;;;;;;11.85;80.86;100713.02;105150;1259;62091;-69
2024/04/06 04:30:44;;;;;;;10.50;2.70;;;;;;;11.91;80.85;100712.27;104885;1255;140232;-62
2024/04/06 04:33:11;;;;;;;10.30;2.90;;;;;;;11.98;80.81;100717.34;105189;1255;66380;-63
2024/04/06 04:35:37;;;;;;;12.20;2.50;;;;;;;12.04;80.74;100716.02;104975;1257;139376;-63
2024/04/06 04:38:04;;;;;;;14.20;3.00;;;;;;;12.11;80.77;100720.39;105110;1257;62320;-62
2024/04/06 04:40:30;;;;;;;14.00;3.00;;;;;;;12.18;80.75;100720.85;104830;1259;62031;-63
2024/04/06 04:42:57;;;;;;;17.20;4.30;;;;;;;12.21;80.46;100722.67;104655;1254;139682;-68
2024/04/06 04:45:24;;;;;;;11.60;2.50;;;;;;;12.21;80.25;100727.09;104756;1259;243924;-73
2024/04/06 04:47:51;;;;;;;10.70;2.60;;;;;;;12.26;80.36;100735.44;104719;1257;141491;-74
2024/04/06 04:50:18;;;;;;;12.60;2.90;;;;;;;12.35;80.45;100734.90;104719;1258;61536;-70
2024/04/06 04:52:44;;;;;;;15.00;3.30;;;;;;;12.50;80.60;100732.50;104787;1254;62090;-69
2024/04/06 04:55:11;;;;;;;14.20;3.10;;;;;;;12.77;80.94;100729.93;104571;1257;139137;-70
2024/04/06 04:57:38;;;;;;;12.50;3.20;;;;;;;13.01;80.24;100732.78;104564;1257;65294;-70
2024/04/06 05:00:07;;;;;;;11.60;2.90;;;;;;;13.05;79.76;100736.36;104288;1262;139487;-69
2024/04/06 05:02:33;;;;;;;14.00;3.30;;;;;;;13.07;79.42;100745.02;105644;1257;62076;-69
2024/04/06 05:05:00;;;;;;;11.60;3.40;;;;;;;13.06;79.25;100745.89;104809;1260;61977;-62
2024/04/06 05:07:27;;;;;;;15.60;3.40;;;;;;;13.07;79.18;100740.44;104630;1254;139077;-62
2024/04/06 05:10:13;;;;;;;12.90;3.00;;;;;;;13.09;79.05;100736.23;104822;1257;66645;-68
2024/04/06 05:12:55;;;;;;;12.10;3.10;;;;;;;13.10;78.98;100739.96;108732;1254;138839;-74
2024/04/06 05:15:21;;;;;;;12.40;3.50;;;;;;;13.14;78.93;100740.91;109141;1254;60051;-74
2024/04/06 05:17:48;;;;;;;13.30;3.10;;;;;;;13.18;78.84;100747.13;107537;1257;138848;-74
2024/04/06 05:20:15;;;;;;;11.20;3.00;;;;;;;13.23;78.79;100745.07;106199;1254;74192;-74
2024/04/06 05:22:41;;;;;;;13.30;3.30;;;;;;;13.34;78.85;100745.77;106172;1257;66982;-74
2024/04/06 05:25:08;;;;;;;13.80;3.50;;;;;;;13.45;78.79;100745.40;105911;1257;139277;-74
2024/04/06 05:27:34;;;;;;;13.80;3.00;;;;;;;13.55;78.67;100748.17;106278;1254;60426;-74
2024/04/06 05:30:02;;;;;;;14.40;3.40;;;;;;;13.62;78.49;100747.02;106056;1255;139572;-75
2024/04/06 05:32:29;;;;;;;18.20;3.90;;;;;;;13.68;78.30;100741.11;106131;1256;74412;-75
2024/04/06 05:34:56;;;;;;;16.40;3.70;;;;;;;13.70;78.08;100737.43;106086;1259;64816;-75
2024/04/06 05:37:22;;;;;;;17.30;3.80;;;;;;;13.76;77.88;100747.73;105964;1254;138633;-75
2024/04/06 05:39:49;;;;;;;10.80;3.50;;;;;;;13.82;77.91;100752.20;106045;1260;62243;-75
2024/04/06 05:42:17;;;;;;;15.20;3.40;;;;;;;13.87;77.64;100759.85;105977;1255;139086;-75
2024/04/06 05:44:43;;;;;;;12.40;3.40;;;;;;;13.91;77.50;100763.25;106207;1260;74119;-74
2024/04/06 05:47:10;;;;;;;14.10;3.80;;;;;;;13.95;77.44;100766.98;106220;1254;65125;-75
2024/04/06 05:49:36;;;;;;;18.70;4.10;;;;;;;14.02;77.30;100768.84;105965;1260;138650;-75
2024/04/06 05:52:03;;;;;;;13.60;3.40;;;;;;;14.07;77.26;100769.77;106091;1254;62089;-75
2024/04/06 05:54:30;;;;;;;15.00;3.90;;;;;;;14.11;77.01;100771.23;106045;1259;139225;-74
2024/04/06 05:56:56;;;;;;;16.60;4.60;;;;;;;14.13;76.93;100780.62;106080;1255;74340;-75
2024/04/06 05:59:23;;;;;;;11.10;3.20;;;;;;;14.26;77.04;100782.16;106078;1257;67126;-75
2024/04/06 06:01:50;;;;;;;15.70;4.20;;;;;;;14.39;76.97;100788.83;106034;1256;138005;-75
2024/04/06 06:04:17;;;;;;;12.20;3.80;;;;;;;14.49;76.59;100790.69;106012;1255;62079;-74
2024/04/06 06:06:43;;;;;;;13.40;4.20;;;;;;;14.55;76.32;100797.11;105999;1260;138558;-75
2024/04/06 06:09:10;;;;;;;19.20;4.70;;;;;;;14.65;76.42;100796.17;106061;1266;74286;-74
2024/04/06 06:11:37;;;;;;;18.80;5.10;;;;;;;14.82;76.22;100798.96;105843;1258;138930;-69
2024/04/06 06:14:05;;;;;;;16.50;3.60;;;;;;;15.00;76.13;100802.99;105955;1259;73331;-64
2024/04/06 06:16:31;;;;;;;18.70;4.30;;;;;;;15.20;75.85;100803.31;104784;1259;62045;-64
2024/04/06 06:18:58;;;;;;;10.80;3.10;;;;;;;15.44;75.56;100808.77;104803;1259;138771;-62
2024/04/06 06:21:24;;;;;;;13.70;3.50;;;;;;;15.50;74.64;100809.52;104841;1255;76087;-62
2024/04/06 06:23:53;;;;;;;11.10;3.40;;;;;;;15.61;74.67;100818.77;105002;1266;138709;-67
2024/04/06 06:26:20;;;;;;;13.90;3.70;;;;;;;15.77;74.48;100821.01;105212;1257;72955;-67
2024/04/06 06:28:47;;;;;;;11.80;3.20;;;;;;;15.83;73.89;100823.88;105042;1259;62109;-67
2024/04/06 06:31:13;;;;;;;10.20;3.60;;;;;;;15.83;73.55;100821.39;104856;1269;138741;-67
2024/04/06 06:33:40;;;;;;;16.20;3.20;;;;;;;15.89;73.19;100823.91;105073;1256;74670;-68
2024/04/06 06:36:07;;;;;;;15.20;3.20;;;;;;;15.97;73.29;100823.23;104958;1264;139451;-67
2024/04/06 06:38:33;;;;;;;11.20;2.90;;;;;;;16.10;73.00;100826.45;106743;1259;73204;-66
2024/04/06 06:41:00;;;;;;;12.90;3.10;;;;;;;16.14;72.65;100836.90;105129;1259;61019;-67
2024/04/06 06:43:27;;;;;;;14.80;3.60;;;;;;;16.18;72.51;100839.41;104889;1260;138069;-67
2024/04/06 06:45:53;;;;;;;16.20;3.10;;;;;;;16.22;72.15;100833.58;105030;1260;76845;-67
2024/04/06 06:48:20;;;;;;;12.20;3.40;;;;;;;16.24;71.96;100836.41;104936;1257;138426;-66
2024/04/06 06:50:46;;;;;;;13.20;3.00;;;;;;;16.26;71.96;100846.88;105079;1255;73195;-67
2024/04/06 06:53:13;;;;;;;15.20;3.60;;;;;;;16.30;71.66;100847.23;105121;1258;62256;-66
2024/04/06 06:55:40;;;;;;;11.10;3.40;;;;;;;16.27;71.23;100843.16;104944;1258;138204;-66
2024/04/06 06:58:06;;;;;;;15.60;3.50;;;;;;;16.21;71.00;100841.90;104900;1255;75754;-73
2024/04/06 07:00:33;;;;;;;16.50;3.40;;;;;;;16.13;70.95;100840.45;104936;1257;138090;-73
2024/04/06 07:02:59;;;;;;;13.80;3.10;;;;;;;16.08;70.85;100847.70;105166;1254;72399;-72
2024/04/06 07:05:26;;;;;;;12.90;3.40;;;;;;;16.04;70.80;100851.21;104894;1258;62140;-73
2024/04/06 07:07:58;;;;;;;12.60;3.00;;;;;;;16.00;70.71;100857.75;104755;1260;138056;-75
2024/04/06 07:10:25;;;;;;;11.10;3.30;;;;;;;15.96;70.49;100870.30;109086;1254;76401;-71
2024/04/06 07:12:51;;;;;;;10.20;2.90;;;;;;;15.87;70.33;100863.70;108806;1254;139075;-72
2024/04/06 07:15:18;;;;;;;13.70;3.60;;;;;;;15.80;70.24;100865.43;109072;1254;72737;-72
2024/04/06 07:17:45;;;;;;;13.40;3.60;;;;;;;15.77;70.36;100860.47;108833;1254;139256;-72
2024/04/06 07:20:11;;;;;;;17.90;5.50;;;;;;;15.79;70.39;100862.60;108914;1254;60402;-74
2024/04/06 07:22:39;;;;;;;11.50;4.70;;;;;;;15.77;70.07;100863.48;108949;1254;76730;-74
2024/04/06 07:25:06;;;;;;;12.20;4.00;;;;;;;15.72;70.16;100855.63;108998;1254;138131;-74
2024/04/06 07:27:33;;;;;;;12.00;3.50;;;;;;;15.73;70.32;100857.08;109069;1254;71780;-73
2024/04/06 07:30:00;;;;;;;17.00;4.20;;;;;;;15.79;70.50;100861.19;108916;1254;139146;-73
2024/04/06 07:32:26;;;;;;;13.00;4.30;;;;;;;15.87;70.25;100863.88;108665;1257;61332;-75
2024/04/06 07:34:53;;;;;;;15.70;5.40;;;;;;;15.84;69.92;100866.88;108474;1254;74119;-67
2024/04/06 07:37:20;;;;;;;11.30;3.20;;;;;;;15.82;69.95;100865.99;108527;1254;138956;-67
2024/04/06 07:39:46;;;;;;;12.40;3.70;;;;;;;15.84;69.82;100862.27;108600;1254;73253;-67
2024/04/06 07:42:13;;;;;;;12.20;3.00;;;;;;;15.85;69.74;100867.40;108598;1254;138561;-67
2024/04/06 07:44:39;;;;;;;9.80;2.90;;;;;;;15.84;69.64;100869.17;105902;1254;62080;-74
2024/04/06 07:47:06;;;;;;;10.80;4.50;;;;;;;15.85;69.65;100870.42;104551;1254;78315;-73
2024/04/06 07:49:33;;;;;;;11.80;4.50;;;;;;;15.89;69.65;100872.92;104204;1259;138669;-74
2024/04/06 07:51:59;;;;;;;10.60;3.10;;;;;;;15.93;69.57;100872.95;104567;1260;73352;-74
2024/04/06 07:54:26;;;;;;;9.60;3.20;;;;;;;15.96;69.49;100868.17;104213;1260;138795;-74
2024/04/06 07:56:52;;;;;;;15.40;3.80;;;;;;;16.04;69.63;100873.00;104535;1254;62090;-74
2024/04/06 07:59:19;;;;;;;14.40;3.10;;;;;;;16.11;69.32;100866.11;104695;1264;75351;-66
2024/04/06 08:01:46;;;;;;;13.60;3.90;;;;;;;16.22;69.34;100873.25;104553;1258;138475;-67
2024/04/06 08:04:12;;;;;;;13.10;3.80;;;;;;;16.33;69.26;100877.35;104751;1260;72483;-67
2024/04/06 08:06:39;;;;;;;14.20;4.20;;;;;;;16.49;69.21;100879.19;104632;1259;138565;-67
2024/04/06 08:09:05;;;;;;;12.10;3.40;;;;;;;16.67;68.99;100883.83;104680;1254;62045;-67
2024/04/06 08:11:32;;;;;;;11.20;4.40;;;;;;;16.78;68.65;100885.97;104717;1254;75403;-66
2024/04/06 08:13:58;;;;;;;12.90;3.90;;;;;;;16.92;68.63;100893.12;108483;1254;138103;-66
2024/04/06 08:16:25;;;;;;;15.90;4.50;;;;;;;17.09;68.33;100886.74;108638;1254;72626;-66
2024/04/06 08:18:52;;;;;;;16.50;4.70;;;;;;;17.22;67.84;100892.06;108511;1254;138039;-67
2024/04/06 08:21:18;;;;;;;11.90;2.80;;;;;;;17.32;67.67;100895.79;108669;1254;60151;-67
2024/04/06 08:23:45;;;;;;;20.50;4.10;;;;;;;17.50;67.76;100899.33;104621;1258;138915;-67
2024/04/06 08:26:11;;;;;;;11.50;3.20;;;;;;;17.65;67.16;100904.27;104633;1259;66496;-67
2024/04/06 08:28:38;;;;;;;14.30;3.60;;;;;;;17.76;66.66;100905.14;104456;1260;72349;-67
2024/04/06 08:31:05;;;;;;;16.60;5.90;;;;;;;17.93;66.67;100911.88;104496;1259;138496;-66
2024/04/06 08:33:31;;;;;;;14.30;4.30;;;;;;;18.11;66.47;100906.14;104246;1254;62776;-66
2024/04/06 08:35:59;;;;;;;11.00;5.10;;;;;;;18.26;66.16;100910.17;104545;1254;138945;-67
2024/04/06 08:38:26;;;;;;;12.00;3.20;;;;;;;18.38;65.59;100918.46;108715;1254;66252;-67
2024/04/06 08:40:52;;;;;;;15.40;6.00;;;;;;;18.45;65.18;100917.90;108681;1254;71451;-66
2024/04/06 08:43:19;;;;;;;12.70;3.80;;;;;;;18.53;64.87;100918.39;106070;1260;138896;-66
2024/04/06 08:45:45;;;;;;;10.10;3.10;;;;;;;18.61;64.77;100920.66;104505;1254;62037;-67
2024/04/06 08:48:12;;;;;;;11.50;2.80;;;;;;;18.72;64.45;100918.11;104411;1260;138918;-67
2024/04/06 08:50:40;;;;;;;12.30;3.00;;;;;;;18.89;64.46;100924.61;104479;1256;65137;-66
2024/04/06 08:53:07;;;;;;;17.50;3.70;;;;;;;18.98;63.99;100928.65;104535;1258;73115;-66
2024/04/06 08:55:33;;;;;;;10.10;3.20;;;;;;;19.02;63.82;100927.38;104569;1261;138122;-66
2024/04/06 08:58:00;;;;;;;8.40;3.20;;;;;;;19.08;63.32;100926.80;104710;1254;62169;-67
2024/04/06 09:00:27;;;;;;;7.90;2.70;;;;;;;19.16;63.26;100926.73;104688;1254;138147;-64
2024/04/06 09:02:53;;;;;;;13.50;3.10;;;;;;;19.21;62.88;100931.50;104797;1258;65417;-66
2024/04/06 09:05:20;;;;;;;12.20;3.80;;;;;;;19.31;62.79;100931.44;108643;1254;73484;-67
2024/04/06 09:07:48;;;;;;;11.00;3.50;;;;;;;19.34;62.18;100935.67;104966;1254;138102;-67
2024/04/06 09:10:14;;;;;;;14.30;3.50;;;;;;;19.32;62.07;100930.35;108652;1254;60399;-67
2024/04/06 09:12:41;;;;;;;11.80;3.90;;;;;;;19.32;61.89;100933.02;108588;1254;138097;-67
2024/04/06 09:15:14;;;;;;;13.80;5.10;;;;;;;19.29;61.99;100933.77;108808;1254;66280;-67
2024/04/06 09:17:42;;;;;;;15.80;4.50;;;;;;;19.35;61.48;100943.15;108595;1254;138729;-67
2024/04/06 09:20:08;;;;;;;12.10;3.90;;;;;;;19.34;61.04;100939.05;108501;1254;59877;-67
2024/04/06 09:22:36;;;;;;;12.70;4.00;;;;;;;19.34;61.20;100936.39;106912;1254;62719;-67
2024/04/06 09:25:07;;;;;;;14.00;3.80;;;;;;;19.48;61.35;100939.64;104598;1254;138132;-66
2024/04/06 09:27:34;;;;;;;10.60;3.80;;;;;;;19.60;60.60;100941.50;108468;1254;67303;-74
2024/04/06 09:30:00;;;;;;;8.50;3.10;;;;;;;19.51;60.11;100943.90;108634;1254;138367;-73
2024/04/06 09:32:29;;;;;;;11.10;3.80;;;;;;;19.47;59.91;100938.95;105860;1257;61936;-66
2024/04/06 09:34:56;;;;;;;11.30;3.90;;;;;;;19.45;60.04;100943.04;104511;1254;62394;-74
2024/04/06 09:37:32;;;;;;;9.40;2.80;;;;;;;19.71;60.71;100951.38;104169;1254;138720;-73
2024/04/06 09:39:59;;;;;;;10.70;3.30;;;;;;;20.02;60.25;100946.63;104255;1260;66971;-67
2024/04/06 09:42:26;;;;;;;12.10;3.70;;;;;;;20.27;60.22;100949.73;104739;1261;138434;-67
2024/04/06 09:44:53;;;;;;;9.90;3.10;;;;;;;20.56;60.02;100950.63;104635;1260;62159;-67
2024/04/06 09:47:23;;;;;;;9.00;2.80;;;;;;;20.81;59.43;100956.39;104676;1258;61930;-67
2024/04/06 09:49:54;;;;;;;14.60;3.80;;;;;;;20.92;58.78;100963.18;104323;1254;137891;-67
2024/04/06 09:52:20;;;;;;;8.80;3.20;;;;;;;20.88;58.32;100964.67;104702;1260;66988;-67
2024/04/06 09:54:47;;;;;;;14.60;3.70;;;;;;;20.81;57.93;100963.16;104480;1258;138519;-67
2024/04/06 09:57:14;;;;;;;10.60;3.60;;;;;;;20.67;57.53;100970.83;104590;1259;62030;-67
2024/04/06 09:59:41;;;;;;;11.30;3.50;;;;;;;20.42;57.49;100966.48;104903;1260;138666;-68
2024/04/06 10:02:08;;;;;;;14.00;4.00;;;;;;;20.28;57.93;100967.53;104775;1255;75100;-67
2024/04/06 10:04:36;;;;;;;12.60;3.70;;;;;;;20.06;57.38;100967.08;104569;1254;66157;-66
2024/04/06 10:07:04;;;;;;;12.40;4.10;;;;;;;19.79;57.67;100969.84;104451;1254;138599;-67
2024/04/06 10:09:35;;;;;;;9.40;2.80;;;;;;;19.61;57.70;100970.15;108588;1254;60275;-67
2024/04/06 10:12:03;;;;;;;11.60;3.40;;;;;;;19.53;57.87;100973.42;108462;1259;138408;-67
2024/04/06 10:14:30;;;;;;;12.40;3.80;;;;;;;19.43;57.71;100976.17;108668;1254;73689;-67
2024/04/06 10:17:09;;;;;;;13.40;4.70;;;;;;;19.47;58.22;100972.94;108459;1254;66827;-67
2024/04/06 10:19:38;;;;;;;12.00;6.00;;;;;;;19.64;57.93;100980.98;108516;1254;138044;-67
2024/04/06 10:22:07;;;;;;;13.40;3.40;;;;;;;19.71;57.51;100984.50;108469;1254;59717;-66
2024/04/06 10:24:34;;;;;;;12.30;4.00;;;;;;;19.74;56.83;100982.52;108525;1254;138553;-74
2024/04/06 10:27:01;;;;;;;15.50;3.70;;;;;;;19.70;56.77;100985.03;108552;1256;75508;-74
2024/04/06 10:29:28;;;;;;;9.80;3.50;;;;;;;19.78;56.79;100986.94;108640;1254;66147;-75
2024/04/06 10:31:55;;;;;;;16.40;4.30;;;;;;;19.77;56.70;100988.20;108394;1254;138001;-75
2024/04/06 10:34:21;;;;;;;19.20;4.60;;;;;;;19.76;56.65;100994.27;108165;1254;61666;-67
2024/04/06 10:36:48;;;;;;;14.10;4.30;;;;;;;19.72;56.42;100994.81;104633;1254;138137;-66
2024/04/06 10:39:14;;;;;;;15.00;3.40;;;;;;;19.65;56.35;100995.92;104084;1254;76173;-67
2024/04/06 10:41:42;;;;;;;14.10;3.70;;;;;;;19.54;56.32;101004.73;108570;1254;138375;-66
2024/04/06 10:44:12;;;;;;;9.80;3.80;;;;;;;19.46;56.26;101006.59;108632;1254;72651;-66
2024/04/06 10:46:39;;;;;;;16.00;4.90;;;;;;;19.40;56.05;101009.84;108652;1254;59971;-67
2024/04/06 10:49:13;;;;;;;12.60;3.60;;;;;;;19.42;56.53;101012.31;108422;1254;138699;-67
2024/04/06 10:51:40;;;;;;;11.50;4.10;;;;;;;19.55;56.45;101020.75;108472;1254;74290;-68
2024/04/06 10:54:06;;;;;;;14.30;3.40;;;;;;;19.66;56.49;101019.07;108433;1254;138557;-67
2024/04/06 10:56:33;;;;;;;13.40;4.10;;;;;;;19.81;56.66;101021.83;108400;1254;71729;-68
2024/04/06 10:59:01;;;;;;;12.00;4.50;;;;;;;20.00;56.28;101031.45;108413;1254;60048;-69
2024/04/06 11:01:34;;;;;;;12.70;5.40;;;;;;;20.06;55.49;101033.71;105420;1254;138568;-74
2024/04/06 11:04:03;;;;;;;14.00;5.10;;;;;;;20.01;54.57;101036.77;108635;1254;74723;-66
2024/04/06 11:06:30;;;;;;;13.10;3.90;;;;;;;19.92;54.61;101043.45;108594;1254;138034;-67
2024/04/06 11:09:01;;;;;;;14.10;4.00;;;;;;;19.89;54.06;101039.92;108661;1254;73686;-67